sensor_id;sensor_type;location;lat;lon;timestamp;temperature;humidity
3348;DHT22;1687;49.540;8.574;2023-06-24T00:02:08;22.00;56.20
3348;DHT22;1687;49.540;8.574;2023-06-24T00:04:34;21.90;56.20
3348;DHT22;1687;49.540;8.574;2023-06-24T00:07:00;21.90;56.60
3348;DHT22;1687;49.540;8.574;2023-06-24T00:09:26;21.90;56.50
3348;DHT22;1687;49.540;8.574;2023-06-24T00:11:58;21.80;56.50
3348;DHT22;1687;49.540;8.574;2023-06-24T00:14:25;21.80;56.60
3348;DHT22;1687;49.540;8.574;2023-06-24T00:16:52;21.80;56.70
3348;DHT22;1687;49.540;8.574;2023-06-24T00:19:20;21.80;56.70
3348;DHT22;1687;49.540;8.574;2023-06-24T00:21:47;21.70;56.70
3348;DHT22;1687;49.540;8.574;2023-06-24T00:24:14;21.70;56.80
3348;DHT22;1687;49.540;8.574;2023-06-24T00:26:39;21.70;56.90
3348;DHT22;1687;49.540;8.574;2023-06-24T00:29:05;21.60;56.90
3348;DHT22;1687;49.540;8.574;2023-06-24T00:31:31;21.50;56.80
3348;DHT22;1687;49.540;8.574;2023-06-24T00:33:57;21.40;56.70
3348;DHT22;1687;49.540;8.574;2023-06-24T00:36:22;21.10;56.60
3348;DHT22;1687;49.540;8.574;2023-06-24T00:38:48;20.90;57.00
3348;DHT22;1687;49.540;8.574;2023-06-24T00:41:16;20.80;57.20
3348;DHT22;1687;49.540;8.574;2023-06-24T00:43:42;20.80;57.20
3348;DHT22;1687;49.540;8.574;2023-06-24T00:46:08;20.60;57.00
3348;DHT22;1687;49.540;8.574;2023-06-24T00:48:34;20.50;57.30
3348;DHT22;1687;49.540;8.574;2023-06-24T00:50:59;20.40;57.20
3348;DHT22;1687;49.540;8.574;2023-06-24T00:53:25;20.20;57.30
3348;DHT22;1687;49.540;8.574;2023-06-24T00:55:52;20.20;57.70
3348;DHT22;1687;49.540;8.574;2023-06-24T00:58:19;20.20;57.90
3348;DHT22;1687;49.540;8.574;2023-06-24T01:00:47;20.20;58.10
3348;DHT22;1687;49.540;8.574;2023-06-24T01:03:22;20.30;58.20
3348;DHT22;1687;49.540;8.574;2023-06-24T01:05:50;20.30;58.20
3348;DHT22;1687;49.540;8.574;2023-06-24T01:08:17;20.30;58.00
3348;DHT22;1687;49.540;8.574;2023-06-24T01:10:44;20.20;58.30
3348;DHT22;1687;49.540;8.574;2023-06-24T01:13:10;20.20;58.40
3348;DHT22;1687;49.540;8.574;2023-06-24T01:15:36;20.10;58.40
3348;DHT22;1687;49.540;8.574;2023-06-24T01:18:10;20.10;58.40
3348;DHT22;1687;49.540;8.574;2023-06-24T01:21:03;19.90;58.40
3348;DHT22;1687;49.540;8.574;2023-06-24T01:23:51;19.90;58.80
3348;DHT22;1687;49.540;8.574;2023-06-24T01:27:02;19.90;58.90
3348;DHT22;1687;49.540;8.574;2023-06-24T01:30:09;19.80;58.70
3348;DHT22;1687;49.540;8.574;2023-06-24T01:32:45;19.60;58.90
3348;DHT22;1687;49.540;8.574;2023-06-24T01:35:21;19.40;58.80
3348;DHT22;1687;49.540;8.574;2023-06-24T01:37:54;19.40;59.30
3348;DHT22;1687;49.540;8.574;2023-06-24T01:40:26;19.40;59.20
3348;DHT22;1687;49.540;8.574;2023-06-24T01:42:56;19.40;59.40
3348;DHT22;1687;49.540;8.574;2023-06-24T01:45:36;19.40;59.30
3348;DHT22;1687;49.540;8.574;2023-06-24T01:48:16;19.30;59.30
3348;DHT22;1687;49.540;8.574;2023-06-24T01:53:27;19.30;59.90
3348;DHT22;1687;49.540;8.574;2023-06-24T01:55:55;19.30;59.80
3348;DHT22;1687;49.540;8.574;2023-06-24T01:58:23;19.40;60.00
3348;DHT22;1687;49.540;8.574;2023-06-24T02:00:49;19.50;60.00
3348;DHT22;1687;49.540;8.574;2023-06-24T02:03:15;19.50;60.10
3348;DHT22;1687;49.540;8.574;2023-06-24T02:05:44;19.60;60.20
3348;DHT22;1687;49.540;8.574;2023-06-24T02:08:11;19.70;60.30
3348;DHT22;1687;49.540;8.574;2023-06-24T02:10:39;19.70;60.30
3348;DHT22;1687;49.540;8.574;2023-06-24T02:13:06;19.80;60.30
3348;DHT22;1687;49.540;8.574;2023-06-24T02:15:34;19.80;60.30
3348;DHT22;1687;49.540;8.574;2023-06-24T02:18:01;19.80;60.30
3348;DHT22;1687;49.540;8.574;2023-06-24T02:20:28;19.70;60.20
3348;DHT22;1687;49.540;8.574;2023-06-24T02:22:56;19.70;60.20
3348;DHT22;1687;49.540;8.574;2023-06-24T02:25:25;19.50;60.10
3348;DHT22;1687;49.540;8.574;2023-06-24T02:27:53;19.40;60.40
3348;DHT22;1687;49.540;8.574;2023-06-24T02:30:20;19.40;60.60
3348;DHT22;1687;49.540;8.574;2023-06-24T02:32:46;19.50;60.80
3348;DHT22;1687;49.540;8.574;2023-06-24T02:35:12;19.50;60.90
3348;DHT22;1687;49.540;8.574;2023-06-24T02:37:38;19.60;61.00
3348;DHT22;1687;49.540;8.574;2023-06-24T02:40:04;19.60;60.90
3348;DHT22;1687;49.540;8.574;2023-06-24T02:42:32;19.60;61.00
3348;DHT22;1687;49.540;8.574;2023-06-24T02:44:58;19.60;61.00
3348;DHT22;1687;49.540;8.574;2023-06-24T02:47:25;19.50;60.90
3348;DHT22;1687;49.540;8.574;2023-06-24T02:49:51;19.50;61.00
3348;DHT22;1687;49.540;8.574;2023-06-24T02:52:17;19.50;61.20
3348;DHT22;1687;49.540;8.574;2023-06-24T02:54:44;19.60;61.40
3348;DHT22;1687;49.540;8.574;2023-06-24T02:57:10;19.60;61.40
3348;DHT22;1687;49.540;8.574;2023-06-24T02:59:36;19.70;61.50
3348;DHT22;1687;49.540;8.574;2023-06-24T03:02:03;19.70;61.50
3348;DHT22;1687;49.540;8.574;2023-06-24T03:04:30;19.90;61.80
3348;DHT22;1687;49.540;8.574;2023-06-24T03:06:56;20.00;61.70
3348;DHT22;1687;49.540;8.574;2023-06-24T03:09:24;20.00;61.70
3348;DHT22;1687;49.540;8.574;2023-06-24T03:11:51;20.00;61.60
3348;DHT22;1687;49.540;8.574;2023-06-24T03:14:18;20.00;61.50
3348;DHT22;1687;49.540;8.574;2023-06-24T03:16:43;19.90;61.30
3348;DHT22;1687;49.540;8.574;2023-06-24T03:19:09;19.80;61.50
3348;DHT22;1687;49.540;8.574;2023-06-24T03:21:35;19.80;61.50
3348;DHT22;1687;49.540;8.574;2023-06-24T03:24:01;19.80;61.40
3348;DHT22;1687;49.540;8.574;2023-06-24T03:26:34;19.80;61.50
3348;DHT22;1687;49.540;8.574;2023-06-24T03:29:01;19.70;61.60
3348;DHT22;1687;49.540;8.574;2023-06-24T03:31:27;19.70;61.60
3348;DHT22;1687;49.540;8.574;2023-06-24T03:33:52;19.80;61.70
3348;DHT22;1687;49.540;8.574;2023-06-24T03:36:18;19.70;61.60
3348;DHT22;1687;49.540;8.574;2023-06-24T03:38:44;19.80;61.80
3348;DHT22;1687;49.540;8.574;2023-06-24T03:41:09;19.80;61.90
3348;DHT22;1687;49.540;8.574;2023-06-24T03:43:35;19.90;61.80
3348;DHT22;1687;49.540;8.574;2023-06-24T03:46:01;19.90;62.70
3348;DHT22;1687;49.540;8.574;2023-06-24T03:48:27;19.90;61.90
3348;DHT22;1687;49.540;8.574;2023-06-24T03:50:53;19.90;62.00
3348;DHT22;1687;49.540;8.574;2023-06-24T03:53:19;19.90;61.90
3348;DHT22;1687;49.540;8.574;2023-06-24T03:55:44;19.90;62.00
3348;DHT22;1687;49.540;8.574;2023-06-24T03:58:10;20.00;61.90
3348;DHT22;1687;49.540;8.574;2023-06-24T04:00:36;19.90;61.80
3348;DHT22;1687;49.540;8.574;2023-06-24T04:03:08;19.90;62.00
3348;DHT22;1687;49.540;8.574;2023-06-24T04:05:34;19.90;62.00
3348;DHT22;1687;49.540;8.574;2023-06-24T04:08:00;19.90;62.00
3348;DHT22;1687;49.540;8.574;2023-06-24T04:10:25;19.90;62.00
3348;DHT22;1687;49.540;8.574;2023-06-24T04:12:51;19.90;62.10
3348;DHT22;1687;49.540;8.574;2023-06-24T04:15:17;20.00;62.20
3348;DHT22;1687;49.540;8.574;2023-06-24T04:17:43;20.00;62.20
3348;DHT22;1687;49.540;8.574;2023-06-24T04:20:09;20.00;62.10
3348;DHT22;1687;49.540;8.574;2023-06-24T04:22:37;20.00;62.20
3348;DHT22;1687;49.540;8.574;2023-06-24T04:25:04;20.10;62.30
3348;DHT22;1687;49.540;8.574;2023-06-24T04:27:31;20.00;62.00
3348;DHT22;1687;49.540;8.574;2023-06-24T04:29:59;20.00;62.20
3348;DHT22;1687;49.540;8.574;2023-06-24T04:32:25;20.00;62.20
3348;DHT22;1687;49.540;8.574;2023-06-24T04:34:51;20.10;62.40
3348;DHT22;1687;49.540;8.574;2023-06-24T04:37:17;20.10;62.30
3348;DHT22;1687;49.540;8.574;2023-06-24T04:39:43;20.10;62.30
3348;DHT22;1687;49.540;8.574;2023-06-24T04:42:09;20.10;62.30
3348;DHT22;1687;49.540;8.574;2023-06-24T04:44:36;20.20;62.40
3348;DHT22;1687;49.540;8.574;2023-06-24T04:47:02;20.20;62.40
3348;DHT22;1687;49.540;8.574;2023-06-24T04:49:28;20.30;62.40
3348;DHT22;1687;49.540;8.574;2023-06-24T04:51:55;20.30;62.40
3348;DHT22;1687;49.540;8.574;2023-06-24T04:54:21;20.40;62.40
3348;DHT22;1687;49.540;8.574;2023-06-24T04:56:46;20.40;62.30
3348;DHT22;1687;49.540;8.574;2023-06-24T04:59:14;20.40;62.40
3348;DHT22;1687;49.540;8.574;2023-06-24T05:01:39;20.40;62.40
3348;DHT22;1687;49.540;8.574;2023-06-24T05:04:05;20.40;62.50
3348;DHT22;1687;49.540;8.574;2023-06-24T05:06:31;20.50;62.60
3348;DHT22;1687;49.540;8.574;2023-06-24T05:08:56;20.60;62.60
3348;DHT22;1687;49.540;8.574;2023-06-24T05:11:22;20.60;62.50
3348;DHT22;1687;49.540;8.574;2023-06-24T05:13:48;20.70;62.40
3348;DHT22;1687;49.540;8.574;2023-06-24T05:16:14;20.70;62.40
3348;DHT22;1687;49.540;8.574;2023-06-24T05:18:39;20.70;62.40
3348;DHT22;1687;49.540;8.574;2023-06-24T05:21:05;20.70;62.30
3348;DHT22;1687;49.540;8.574;2023-06-24T05:23:30;20.80;62.50
3348;DHT22;1687;49.540;8.574;2023-06-24T05:25:56;20.90;62.40
3348;DHT22;1687;49.540;8.574;2023-06-24T05:28:22;21.00;62.60
3348;DHT22;1687;49.540;8.574;2023-06-24T05:30:47;21.10;62.40
3348;DHT22;1687;49.540;8.574;2023-06-24T05:33:13;21.10;62.10
3348;DHT22;1687;49.540;8.574;2023-06-24T05:35:39;21.10;62.20
3348;DHT22;1687;49.540;8.574;2023-06-24T05:38:07;21.10;62.10
3348;DHT22;1687;49.540;8.574;2023-06-24T05:40:32;21.10;62.20
3348;DHT22;1687;49.540;8.574;2023-06-24T05:42:58;21.30;62.40
3348;DHT22;1687;49.540;8.574;2023-06-24T05:45:24;21.40;62.10
3348;DHT22;1687;49.540;8.574;2023-06-24T05:47:49;21.40;61.90
3348;DHT22;1687;49.540;8.574;2023-06-24T05:50:15;21.50;62.00
3348;DHT22;1687;49.540;8.574;2023-06-24T05:52:41;21.60;62.10
3348;DHT22;1687;49.540;8.574;2023-06-24T05:55:07;21.80;61.80
3348;DHT22;1687;49.540;8.574;2023-06-24T05:57:33;21.80;61.50
3348;DHT22;1687;49.540;8.574;2023-06-24T05:59:58;21.80;61.50
3348;DHT22;1687;49.540;8.574;2023-06-24T06:02:24;21.90;61.40
3348;DHT22;1687;49.540;8.574;2023-06-24T06:04:50;22.00;61.40
3348;DHT22;1687;49.540;8.574;2023-06-24T06:07:16;22.10;61.40
3348;DHT22;1687;49.540;8.574;2023-06-24T06:09:41;22.20;61.40
3348;DHT22;1687;49.540;8.574;2023-06-24T06:12:08;22.40;61.40
3348;DHT22;1687;49.540;8.574;2023-06-24T06:14:34;22.70;61.40
3348;DHT22;1687;49.540;8.574;2023-06-24T06:17:00;22.90;61.30
3348;DHT22;1687;49.540;8.574;2023-06-24T06:19:25;23.10;61.00
3348;DHT22;1687;49.540;8.574;2023-06-24T06:21:51;23.20;60.80
3348;DHT22;1687;49.540;8.574;2023-06-24T06:24:17;23.20;60.40
3348;DHT22;1687;49.540;8.574;2023-06-24T06:26:44;23.10;60.30
3348;DHT22;1687;49.540;8.574;2023-06-24T06:29:13;23.10;60.40
3348;DHT22;1687;49.540;8.574;2023-06-24T06:31:38;23.20;60.40
3348;DHT22;1687;49.540;8.574;2023-06-24T06:34:04;23.30;60.20
3348;DHT22;1687;49.540;8.574;2023-06-24T06:36:30;23.40;60.00
3348;DHT22;1687;49.540;8.574;2023-06-24T06:38:56;23.30;59.90
3348;DHT22;1687;49.540;8.574;2023-06-24T06:41:22;23.30;59.80
3348;DHT22;1687;49.540;8.574;2023-06-24T06:43:51;23.40;59.70
3348;DHT22;1687;49.540;8.574;2023-06-24T06:46:17;23.50;59.80
3348;DHT22;1687;49.540;8.574;2023-06-24T06:48:43;23.60;59.70
3348;DHT22;1687;49.540;8.574;2023-06-24T06:51:08;23.80;59.60
3348;DHT22;1687;49.540;8.574;2023-06-24T06:53:34;23.90;59.40
3348;DHT22;1687;49.540;8.574;2023-06-24T06:56:00;23.90;59.30
3348;DHT22;1687;49.540;8.574;2023-06-24T06:58:25;23.90;59.10
3348;DHT22;1687;49.540;8.574;2023-06-24T07:00:51;24.00;59.00
3348;DHT22;1687;49.540;8.574;2023-06-24T07:03:17;23.90;58.80
3348;DHT22;1687;49.540;8.574;2023-06-24T07:05:42;23.90;58.80
3348;DHT22;1687;49.540;8.574;2023-06-24T07:08:08;24.00;58.80
3348;DHT22;1687;49.540;8.574;2023-06-24T07:10:34;24.10;58.90
3348;DHT22;1687;49.540;8.574;2023-06-24T07:13:00;24.20;58.60
3348;DHT22;1687;49.540;8.574;2023-06-24T07:15:26;24.30;58.50
3348;DHT22;1687;49.540;8.574;2023-06-24T07:17:52;24.40;58.40
3348;DHT22;1687;49.540;8.574;2023-06-24T07:20:19;24.50;58.20
3348;DHT22;1687;49.540;8.574;2023-06-24T07:22:45;24.60;58.30
3348;DHT22;1687;49.540;8.574;2023-06-24T07:25:11;24.70;58.30
3348;DHT22;1687;49.540;8.574;2023-06-24T07:27:37;24.90;58.00
3348;DHT22;1687;49.540;8.574;2023-06-24T07:30:04;25.00;57.90
3348;DHT22;1687;49.540;8.574;2023-06-24T07:32:30;25.20;57.80
3348;DHT22;1687;49.540;8.574;2023-06-24T07:34:56;25.20;57.40
3348;DHT22;1687;49.540;8.574;2023-06-24T07:37:22;25.20;57.30
3348;DHT22;1687;49.540;8.574;2023-06-24T07:39:49;25.30;57.20
3348;DHT22;1687;49.540;8.574;2023-06-24T07:42:15;25.30;56.90
3348;DHT22;1687;49.540;8.574;2023-06-24T07:44:45;25.30;56.80
3348;DHT22;1687;49.540;8.574;2023-06-24T07:47:11;25.40;56.80
3348;DHT22;1687;49.540;8.574;2023-06-24T07:49:36;25.60;56.60
3348;DHT22;1687;49.540;8.574;2023-06-24T07:52:02;25.70;56.40
3348;DHT22;1687;49.540;8.574;2023-06-24T07:54:30;25.80;55.90
3348;DHT22;1687;49.540;8.574;2023-06-24T07:56:56;25.70;55.90
3348;DHT22;1687;49.540;8.574;2023-06-24T07:59:21;25.70;55.80
3348;DHT22;1687;49.540;8.574;2023-06-24T08:01:47;25.80;55.90
3348;DHT22;1687;49.540;8.574;2023-06-24T08:04:14;25.80;55.80
3348;DHT22;1687;49.540;8.574;2023-06-24T08:06:40;25.80;55.70
3348;DHT22;1687;49.540;8.574;2023-06-24T08:09:06;25.90;55.60
3348;DHT22;1687;49.540;8.574;2023-06-24T08:11:31;26.00;55.50
3348;DHT22;1687;49.540;8.574;2023-06-24T08:13:57;26.00;55.50
3348;DHT22;1687;49.540;8.574;2023-06-24T08:16:23;26.10;55.50
3348;DHT22;1687;49.540;8.574;2023-06-24T08:18:48;26.10;55.30
3348;DHT22;1687;49.540;8.574;2023-06-24T08:21:14;26.20;55.20
3348;DHT22;1687;49.540;8.574;2023-06-24T08:23:40;26.30;55.30
3348;DHT22;1687;49.540;8.574;2023-06-24T08:26:06;26.40;55.10
3348;DHT22;1687;49.540;8.574;2023-06-24T08:28:33;26.50;55.00
3348;DHT22;1687;49.540;8.574;2023-06-24T08:30:58;26.60;54.90
3348;DHT22;1687;49.540;8.574;2023-06-24T08:33:24;26.60;54.80
3348;DHT22;1687;49.540;8.574;2023-06-24T08:35:50;26.60;54.50
3348;DHT22;1687;49.540;8.574;2023-06-24T08:38:15;26.60;54.40
3348;DHT22;1687;49.540;8.574;2023-06-24T08:40:42;26.70;54.50
3348;DHT22;1687;49.540;8.574;2023-06-24T08:43:09;26.90;54.10
3348;DHT22;1687;49.540;8.574;2023-06-24T08:45:34;26.90;54.10
3348;DHT22;1687;49.540;8.574;2023-06-24T08:48:00;27.00;54.00
3348;DHT22;1687;49.540;8.574;2023-06-24T08:50:33;27.00;53.70
3348;DHT22;1687;49.540;8.574;2023-06-24T08:53:03;27.00;53.80
3348;DHT22;1687;49.540;8.574;2023-06-24T08:55:38;27.10;53.50
3348;DHT22;1687;49.540;8.574;2023-06-24T08:58:05;27.10;53.40
3348;DHT22;1687;49.540;8.574;2023-06-24T09:00:31;27.20;53.30
3348;DHT22;1687;49.540;8.574;2023-06-24T09:02:57;27.40;53.20
3348;DHT22;1687;49.540;8.574;2023-06-24T09:05:23;27.60;52.80
3348;DHT22;1687;49.540;8.574;2023-06-24T09:07:49;27.70;52.50
3348;DHT22;1687;49.540;8.574;2023-06-24T09:10:34;27.80;52.20
3348;DHT22;1687;49.540;8.574;2023-06-24T09:13:02;28.00;51.90
3348;DHT22;1687;49.540;8.574;2023-06-24T09:15:30;28.00;51.50
3348;DHT22;1687;49.540;8.574;2023-06-24T09:18:00;28.00;51.50
3348;DHT22;1687;49.540;8.574;2023-06-24T09:20:27;28.00;51.50
3348;DHT22;1687;49.540;8.574;2023-06-24T09:23:01;28.00;51.50
3348;DHT22;1687;49.540;8.574;2023-06-24T09:25:28;28.00;51.30
3348;DHT22;1687;49.540;8.574;2023-06-24T09:27:54;28.00;51.20
3348;DHT22;1687;49.540;8.574;2023-06-24T09:30:24;28.00;50.90
3348;DHT22;1687;49.540;8.574;2023-06-24T09:32:51;28.00;50.90
3348;DHT22;1687;49.540;8.574;2023-06-24T09:35:24;28.10;50.80
3348;DHT22;1687;49.540;8.574;2023-06-24T09:37:55;28.10;50.80
3348;DHT22;1687;49.540;8.574;2023-06-24T09:40:22;28.20;50.80
3348;DHT22;1687;49.540;8.574;2023-06-24T09:42:56;28.30;50.70
3348;DHT22;1687;49.540;8.574;2023-06-24T09:47:50;28.10;50.00
3348;DHT22;1687;49.540;8.574;2023-06-24T09:50:16;28.00;50.00
3348;DHT22;1687;49.540;8.574;2023-06-24T09:52:43;28.00;50.10
3348;DHT22;1687;49.540;8.574;2023-06-24T09:55:10;28.20;50.20
3348;DHT22;1687;49.540;8.574;2023-06-24T09:57:39;28.30;50.00
3348;DHT22;1687;49.540;8.574;2023-06-24T10:00:08;28.30;50.00
3348;DHT22;1687;49.540;8.574;2023-06-24T10:02:35;28.40;49.90
3348;DHT22;1687;49.540;8.574;2023-06-24T10:05:02;28.50;49.90
3348;DHT22;1687;49.540;8.574;2023-06-24T10:07:30;28.60;49.70
3348;DHT22;1687;49.540;8.574;2023-06-24T10:09:57;28.70;49.70
3348;DHT22;1687;49.540;8.574;2023-06-24T10:12:23;28.70;49.50
3348;DHT22;1687;49.540;8.574;2023-06-24T10:14:52;28.80;49.40
3348;DHT22;1687;49.540;8.574;2023-06-24T10:17:18;29.00;49.30
3348;DHT22;1687;49.540;8.574;2023-06-24T10:19:44;29.10;49.20
3348;DHT22;1687;49.540;8.574;2023-06-24T10:22:11;29.30;49.10
3348;DHT22;1687;49.540;8.574;2023-06-24T10:24:40;29.30;48.70
3348;DHT22;1687;49.540;8.574;2023-06-24T10:27:18;29.30;48.60
3348;DHT22;1687;49.540;8.574;2023-06-24T10:29:52;29.30;48.40
3348;DHT22;1687;49.540;8.574;2023-06-24T10:32:19;29.30;48.10
3348;DHT22;1687;49.540;8.574;2023-06-24T10:34:48;29.30;48.00
3348;DHT22;1687;49.540;8.574;2023-06-24T10:37:21;29.20;47.70
3348;DHT22;1687;49.540;8.574;2023-06-24T10:39:56;29.20;47.60
3348;DHT22;1687;49.540;8.574;2023-06-24T10:47:43;29.30;47.50
3348;DHT22;1687;49.540;8.574;2023-06-24T10:50:12;29.30;47.20
3348;DHT22;1687;49.540;8.574;2023-06-24T10:52:46;29.40;47.10
3348;DHT22;1687;49.540;8.574;2023-06-24T10:55:14;29.50;47.00
3348;DHT22;1687;49.540;8.574;2023-06-24T10:57:44;29.50;47.00
3348;DHT22;1687;49.540;8.574;2023-06-24T11:00:14;29.50;46.80
3348;DHT22;1687;49.540;8.574;2023-06-24T11:02:40;29.40;46.60
3348;DHT22;1687;49.540;8.574;2023-06-24T11:05:07;29.50;46.50
3348;DHT22;1687;49.540;8.574;2023-06-24T11:07:35;29.50;46.20
3348;DHT22;1687;49.540;8.574;2023-06-24T11:10:04;29.50;46.00
3348;DHT22;1687;49.540;8.574;2023-06-24T11:12:38;29.50;45.70
3348;DHT22;1687;49.540;8.574;2023-06-24T11:15:09;29.60;45.60
3348;DHT22;1687;49.540;8.574;2023-06-24T11:17:38;29.60;45.60
3348;DHT22;1687;49.540;8.574;2023-06-24T11:20:09;29.50;45.30
3348;DHT22;1687;49.540;8.574;2023-06-24T11:22:36;29.30;45.10
3348;DHT22;1687;49.540;8.574;2023-06-24T11:25:02;29.30;45.20
3348;DHT22;1687;49.540;8.574;2023-06-24T11:27:30;29.50;45.30
3348;DHT22;1687;49.540;8.574;2023-06-24T11:29:58;29.70;45.30
3348;DHT22;1687;49.540;8.574;2023-06-24T11:32:37;29.80;45.10
3348;DHT22;1687;49.540;8.574;2023-06-24T11:35:08;30.00;45.10
3348;DHT22;1687;49.540;8.574;2023-06-24T11:37:35;30.20;44.90
3348;DHT22;1687;49.540;8.574;2023-06-24T11:40:08;30.40;44.90
3348;DHT22;1687;49.540;8.574;2023-06-24T11:42:39;30.50;44.80
3348;DHT22;1687;49.540;8.574;2023-06-24T11:45:07;30.40;44.40
3348;DHT22;1687;49.540;8.574;2023-06-24T11:47:35;30.30;44.30
3348;DHT22;1687;49.540;8.574;2023-06-24T11:50:04;30.30;44.30
3348;DHT22;1687;49.540;8.574;2023-06-24T11:52:39;30.40;44.30
3348;DHT22;1687;49.540;8.574;2023-06-24T11:55:12;30.50;44.10
3348;DHT22;1687;49.540;8.574;2023-06-24T11:57:58;30.50;44.00
3348;DHT22;1687;49.540;8.574;2023-06-24T12:03:00;30.30;43.50
3348;DHT22;1687;49.540;8.574;2023-06-24T12:05:34;30.20;43.50
3348;DHT22;1687;49.540;8.574;2023-06-24T12:08:03;30.20;43.50
3348;DHT22;1687;49.540;8.574;2023-06-24T12:10:29;30.40;43.40
3348;DHT22;1687;49.540;8.574;2023-06-24T12:12:57;30.50;43.40
3348;DHT22;1687;49.540;8.574;2023-06-24T12:15:23;30.60;43.40
3348;DHT22;1687;49.540;8.574;2023-06-24T12:17:49;30.60;43.30
3348;DHT22;1687;49.540;8.574;2023-06-24T12:20:15;30.60;43.40
3348;DHT22;1687;49.540;8.574;2023-06-24T12:22:41;30.50;43.30
3348;DHT22;1687;49.540;8.574;2023-06-24T12:25:08;30.50;43.40
3348;DHT22;1687;49.540;8.574;2023-06-24T12:27:34;30.60;43.50
3348;DHT22;1687;49.540;8.574;2023-06-24T12:30:00;30.70;44.00
3348;DHT22;1687;49.540;8.574;2023-06-24T12:32:26;30.90;43.40
3348;DHT22;1687;49.540;8.574;2023-06-24T12:34:52;31.00;43.30
3348;DHT22;1687;49.540;8.574;2023-06-24T12:37:18;31.20;43.10
3348;DHT22;1687;49.540;8.574;2023-06-24T12:39:44;31.20;42.90
3348;DHT22;1687;49.540;8.574;2023-06-24T12:42:10;31.30;42.90
3348;DHT22;1687;49.540;8.574;2023-06-24T12:44:36;31.40;42.90
3348;DHT22;1687;49.540;8.574;2023-06-24T12:47:02;31.50;42.60
3348;DHT22;1687;49.540;8.574;2023-06-24T12:49:28;31.40;42.40
3348;DHT22;1687;49.540;8.574;2023-06-24T12:51:53;31.30;42.20
3348;DHT22;1687;49.540;8.574;2023-06-24T12:54:19;31.10;42.20
3348;DHT22;1687;49.540;8.574;2023-06-24T12:56:45;31.20;42.40
3348;DHT22;1687;49.540;8.574;2023-06-24T12:59:10;31.30;42.50
3348;DHT22;1687;49.540;8.574;2023-06-24T13:01:36;31.40;42.30
3348;DHT22;1687;49.540;8.574;2023-06-24T13:04:02;31.40;42.10
3348;DHT22;1687;49.540;8.574;2023-06-24T13:06:27;31.40;42.00
3348;DHT22;1687;49.540;8.574;2023-06-24T13:08:53;31.40;42.10
3348;DHT22;1687;49.540;8.574;2023-06-24T13:11:19;31.50;42.10
3348;DHT22;1687;49.540;8.574;2023-06-24T13:13:44;31.60;41.90
3348;DHT22;1687;49.540;8.574;2023-06-24T13:16:10;31.50;41.60
3348;DHT22;1687;49.540;8.574;2023-06-24T13:18:36;31.70;41.70
3348;DHT22;1687;49.540;8.574;2023-06-24T13:21:01;31.90;41.70
3348;DHT22;1687;49.540;8.574;2023-06-24T13:23:27;32.30;41.70
3348;DHT22;1687;49.540;8.574;2023-06-24T13:25:53;32.50;41.40
3348;DHT22;1687;49.540;8.574;2023-06-24T13:28:19;32.70;41.30
3348;DHT22;1687;49.540;8.574;2023-06-24T13:30:44;33.10;41.20
3348;DHT22;1687;49.540;8.574;2023-06-24T13:33:10;33.10;40.80
3348;DHT22;1687;49.540;8.574;2023-06-24T13:35:36;33.20;40.70
3348;DHT22;1687;49.540;8.574;2023-06-24T13:38:01;33.00;40.30
3348;DHT22;1687;49.540;8.574;2023-06-24T13:40:27;32.60;40.10
3348;DHT22;1687;49.540;8.574;2023-06-24T13:42:53;32.50;40.40
3348;DHT22;1687;49.540;8.574;2023-06-24T13:45:19;32.40;40.40
3348;DHT22;1687;49.540;8.574;2023-06-24T13:47:44;32.30;40.30
3348;DHT22;1687;49.540;8.574;2023-06-24T13:50:10;32.30;40.40
3348;DHT22;1687;49.540;8.574;2023-06-24T13:52:37;32.80;40.90
3348;DHT22;1687;49.540;8.574;2023-06-24T13:55:02;34.30;41.10
3348;DHT22;1687;49.540;8.574;2023-06-24T13:57:29;36.30;40.90
3348;DHT22;1687;49.540;8.574;2023-06-24T13:59:55;38.20;40.30
3348;DHT22;1687;49.540;8.574;2023-06-24T14:02:21;39.70;39.40
3348;DHT22;1687;49.540;8.574;2023-06-24T14:04:46;41.00;38.40
3348;DHT22;1687;49.540;8.574;2023-06-24T14:07:13;42.00;37.30
3348;DHT22;1687;49.540;8.574;2023-06-24T14:09:39;42.70;36.80
3348;DHT22;1687;49.540;8.574;2023-06-24T14:12:06;43.20;35.60
3348;DHT22;1687;49.540;8.574;2023-06-24T14:14:35;43.30;35.60
3348;DHT22;1687;49.540;8.574;2023-06-24T14:17:02;44.30;35.40
3348;DHT22;1687;49.540;8.574;2023-06-24T14:19:28;45.20;34.80
3348;DHT22;1687;49.540;8.574;2023-06-24T14:21:53;45.40;33.50
3348;DHT22;1687;49.540;8.574;2023-06-24T14:24:19;43.60;32.20
3348;DHT22;1687;49.540;8.574;2023-06-24T14:26:45;41.10;32.20
3348;DHT22;1687;49.540;8.574;2023-06-24T14:29:14;39.30;32.90
3348;DHT22;1687;49.540;8.574;2023-06-24T14:31:40;38.30;33.50
3348;DHT22;1687;49.540;8.574;2023-06-24T14:34:06;37.50;33.70
3348;DHT22;1687;49.540;8.574;2023-06-24T14:36:31;36.80;33.80
3348;DHT22;1687;49.540;8.574;2023-06-24T14:38:57;36.70;34.40
3348;DHT22;1687;49.540;8.574;2023-06-24T14:41:24;37.20;34.30
3348;DHT22;1687;49.540;8.574;2023-06-24T14:43:50;38.00;35.10
3348;DHT22;1687;49.540;8.574;2023-06-24T14:46:16;40.00;35.50
3348;DHT22;1687;49.540;8.574;2023-06-24T14:48:42;41.90;34.40
3348;DHT22;1687;49.540;8.574;2023-06-24T14:51:08;43.20;33.90
3348;DHT22;1687;49.540;8.574;2023-06-24T14:53:33;44.60;33.70
3348;DHT22;1687;49.540;8.574;2023-06-24T14:55:59;45.70;32.90
3348;DHT22;1687;49.540;8.574;2023-06-24T14:58:25;46.60;32.40
3348;DHT22;1687;49.540;8.574;2023-06-24T15:00:51;47.20;31.70
3348;DHT22;1687;49.540;8.574;2023-06-24T15:03:17;47.90;31.60
3348;DHT22;1687;49.540;8.574;2023-06-24T15:05:43;48.60;31.00
3348;DHT22;1687;49.540;8.574;2023-06-24T15:08:09;47.40;30.00
3348;DHT22;1687;49.540;8.574;2023-06-24T15:10:35;46.20;30.10
3348;DHT22;1687;49.540;8.574;2023-06-24T15:13:01;45.70;30.00
3348;DHT22;1687;49.540;8.574;2023-06-24T15:15:26;44.40;29.80
3348;DHT22;1687;49.540;8.574;2023-06-24T15:17:52;43.10;29.80
3348;DHT22;1687;49.540;8.574;2023-06-24T15:20:18;43.00;30.10
3348;DHT22;1687;49.540;8.574;2023-06-24T15:22:43;43.50;30.20
3348;DHT22;1687;49.540;8.574;2023-06-24T15:25:09;43.40;30.00
3348;DHT22;1687;49.540;8.574;2023-06-24T15:27:35;42.30;29.60
3348;DHT22;1687;49.540;8.574;2023-06-24T15:30:01;41.60;29.90
3348;DHT22;1687;49.540;8.574;2023-06-24T15:32:26;41.30;30.10
3348;DHT22;1687;49.540;8.574;2023-06-24T15:34:52;42.50;30.50
3348;DHT22;1687;49.540;8.574;2023-06-24T15:37:17;44.00;30.50
3348;DHT22;1687;49.540;8.574;2023-06-24T15:39:43;45.40;30.20
3348;DHT22;1687;49.540;8.574;2023-06-24T15:42:09;46.30;29.80
3348;DHT22;1687;49.540;8.574;2023-06-24T15:44:36;46.90;29.60
3348;DHT22;1687;49.540;8.574;2023-06-24T15:47:04;47.40;29.40
3348;DHT22;1687;49.540;8.574;2023-06-24T15:49:30;47.90;29.00
3348;DHT22;1687;49.540;8.574;2023-06-24T15:51:56;48.20;28.80
3348;DHT22;1687;49.540;8.574;2023-06-24T15:54:22;48.20;28.40
3348;DHT22;1687;49.540;8.574;2023-06-24T15:56:47;47.30;27.80
3348;DHT22;1687;49.540;8.574;2023-06-24T15:59:13;47.10;28.10
3348;DHT22;1687;49.540;8.574;2023-06-24T16:01:39;46.40;27.60
3348;DHT22;1687;49.540;8.574;2023-06-24T16:04:06;45.90;27.60
3348;DHT22;1687;49.540;8.574;2023-06-24T16:06:33;44.80;27.40
3348;DHT22;1687;49.540;8.574;2023-06-24T16:09:00;43.50;27.70
3348;DHT22;1687;49.540;8.574;2023-06-24T16:11:26;42.10;27.80
3348;DHT22;1687;49.540;8.574;2023-06-24T16:13:52;40.80;27.90
3348;DHT22;1687;49.540;8.574;2023-06-24T16:16:17;39.90;28.20